createdAt,value
2019-03-16T00:00:11.589Z,95.52
2019-03-16T00:02:11.799Z,95.28
2019-03-16T00:04:11.743Z,95.64
2019-03-16T00:06:11.544Z,95.50
2019-03-16T00:08:11.783Z,95.76
2019-03-16T00:10:11.873Z,95.57
2019-03-16T00:12:11.665Z,95.88
2019-03-16T00:14:11.595Z,95.86
2019-03-16T00:16:11.785Z,95.66
2019-03-16T00:18:11.934Z,95.85
2019-03-16T00:20:11.919Z,96.02
2019-03-16T00:22:11.823Z,95.96
2019-03-16T00:24:12.438Z,96.42
2019-03-16T00:26:11.636Z,96.03
2019-03-16T00:28:11.649Z,96.64
2019-03-16T00:30:11.570Z,96.89
2019-03-16T00:32:13.744Z,96.69
2019-03-16T00:34:11.685Z,96.91
2019-03-16T00:36:11.695Z,96.58
2019-03-16T00:38:11.712Z,96.93
2019-03-16T00:40:11.683Z,96.70
2019-03-16T00:42:12.036Z,96.74
2019-03-16T00:44:11.843Z,96.65
2019-03-16T00:46:11.547Z,96.80
2019-03-16T00:48:11.563Z,96.59
2019-03-16T00:50:11.669Z,96.46
2019-03-16T00:52:11.898Z,96.49
2019-03-16T00:54:11.534Z,96.86
2019-03-16T00:56:11.814Z,96.63
2019-03-16T00:58:11.747Z,96.58
2019-03-16T01:00:11.757Z,96.46
2019-03-16T01:02:11.848Z,95.94
2019-03-16T01:04:11.856Z,96.01
2019-03-16T01:06:11.719Z,96.04
2019-03-16T01:08:11.684Z,95.87
2019-03-16T01:10:11.892Z,95.67
2019-03-16T01:12:11.909Z,95.82
2019-03-16T01:14:11.854Z,95.88
2019-03-16T01:16:11.720Z,96.15
2019-03-16T01:18:11.977Z,96.00
2019-03-16T01:20:11.745Z,95.80
2019-03-16T01:22:11.860Z,96.19
2019-03-16T01:24:11.601Z,96.35
2019-03-16T01:26:11.657Z,96.09
2019-03-16T01:28:11.789Z,96.03
2019-03-16T01:30:11.814Z,96.20
2019-03-16T01:32:11.984Z,96.27
2019-03-16T01:34:11.715Z,96.41
2019-03-16T01:36:11.937Z,96.56
2019-03-16T01:38:11.956Z,96.82
2019-03-16T01:40:11.970Z,96.99
2019-03-16T01:42:11.814Z,97.24
2019-03-16T01:44:11.682Z,97.08
2019-03-16T01:46:11.814Z,97.10
2019-03-16T01:48:11.832Z,97.36
2019-03-16T01:50:11.832Z,97.74
2019-03-16T01:52:11.816Z,97.80
2019-03-16T01:54:11.704Z,98.10
2019-03-16T01:56:11.866Z,97.82
2019-03-16T01:58:11.980Z,98.15
2019-03-16T02:00:11.893Z,98.05
2019-03-16T02:02:11.804Z,98.28
2019-03-16T02:04:11.912Z,98.18
2019-03-16T02:06:11.714Z,98.17
2019-03-16T02:08:11.839Z,98.25
2019-03-16T02:10:11.846Z,98.72
2019-03-16T02:12:11.965Z,98.53
2019-03-16T02:14:11.904Z,98.63
2019-03-16T02:16:11.897Z,98.98
2019-03-16T02:18:11.790Z,98.77
2019-03-16T02:20:12.305Z,98.95
2019-03-16T02:22:11.919Z,98.70
2019-03-16T02:24:11.722Z,98.85
2019-03-16T02:26:11.713Z,99.08
2019-03-16T02:28:11.846Z,98.87
2019-03-16T02:30:11.868Z,98.75
2019-03-16T02:32:11.753Z,98.72
2019-03-16T02:34:11.982Z,98.63
2019-03-16T02:36:11.789Z,98.23
2019-03-16T02:38:11.834Z,98.19
2019-03-16T02:40:11.712Z,97.89
2019-03-16T02:42:11.933Z,97.99
2019-03-16T02:44:11.981Z,98.23
2019-03-16T02:46:11.960Z,98.07
2019-03-16T02:48:11.754Z,97.77
2019-03-16T02:50:11.881Z,97.75
2019-03-16T02:52:11.991Z,97.73
2019-03-16T02:54:11.962Z,97.73
2019-03-16T02:56:11.950Z,97.29
2019-03-16T02:58:12.028Z,97.79
2019-03-16T03:00:11.734Z,97.47
2019-03-16T03:02:11.720Z,97.30
2019-03-16T03:04:11.856Z,97.19
2019-03-16T03:06:11.797Z,97.30
2019-03-16T03:08:11.677Z,97.22
2019-03-16T03:10:11.913Z,97.40
2019-03-16T03:12:11.904Z,97.67
2019-03-16T03:14:11.912Z,97.42
2019-03-16T03:16:11.726Z,97.42
2019-03-16T03:18:11.941Z,97.21
2019-03-16T03:20:11.992Z,97.53
2019-03-16T03:22:11.754Z,97.63
2019-03-16T03:24:11.759Z,97.27
2019-03-16T03:26:11.889Z,97.62
2019-03-16T03:28:12.105Z,97.17
2019-03-16T03:30:11.843Z,97.20
2019-03-16T03:32:12.042Z,97.25
2019-03-16T03:34:11.855Z,97.05
2019-03-16T03:36:11.797Z,97.13
2019-03-16T03:38:11.951Z,97.10
2019-03-16T03:40:11.806Z,97.53
2019-03-16T03:42:11.879Z,97.55
2019-03-16T03:44:12.099Z,97.74
2019-03-16T03:46:11.834Z,97.85
2019-03-16T03:48:12.092Z,97.82
2019-03-16T03:50:12.029Z,98.07
2019-03-16T03:52:12.035Z,98.29
2019-03-16T03:54:11.947Z,98.29
2019-03-16T03:56:12.062Z,98.00
2019-03-16T03:58:12.108Z,98.44
2019-03-16T04:00:12.078Z,98.34
2019-03-16T04:02:12.087Z,98.33
2019-03-16T04:04:15.738Z,98.21
2019-03-16T04:06:12.326Z,98.33
2019-03-16T04:08:12.136Z,98.31
2019-03-16T04:10:11.841Z,98.68
2019-03-16T04:12:12.046Z,98.65
2019-03-16T04:14:11.939Z,98.72
2019-03-16T04:16:11.855Z,98.87
2019-03-16T04:18:11.965Z,98.51
2019-03-16T04:20:12.110Z,98.82
2019-03-16T04:22:12.111Z,98.81
2019-03-16T04:24:12.013Z,98.82
2019-03-16T04:26:11.836Z,98.89
2019-03-16T04:28:11.938Z,98.71
2019-03-16T04:30:11.945Z,99.16
2019-03-16T04:32:12.216Z,98.87
2019-03-16T04:34:12.073Z,99.34
2019-03-16T04:36:11.887Z,99.05
2019-03-16T04:38:11.994Z,99.24
2019-03-16T04:40:12.001Z,99.08
2019-03-16T04:42:12.022Z,99.50
2019-03-16T04:44:12.127Z,99.60
2019-03-16T04:46:12.043Z,99.45
2019-03-16T04:48:11.917Z,99.26
2019-03-16T04:50:11.880Z,99.31
2019-03-16T04:52:12.071Z,99.43
2019-03-16T04:54:11.984Z,99.71
2019-03-16T04:56:12.011Z,99.51
2019-03-16T04:58:12.009Z,99.82
2019-03-16T05:00:12.331Z,99.46
2019-03-16T05:02:12.026Z,99.37
2019-03-16T05:04:12.139Z,99.38
2019-03-16T05:06:12.493Z,99.55
2019-03-16T05:08:12.072Z,99.63
2019-03-16T05:10:12.004Z,99.74
2019-03-16T05:12:12.176Z,99.77
2019-03-16T05:14:12.156Z,99.67
2019-03-16T05:16:12.010Z,99.72
2019-03-16T05:18:11.919Z,99.92
2019-03-16T05:20:12.038Z,99.84
2019-03-16T05:22:12.246Z,99.71
2019-03-16T05:24:12.162Z,100.00
2019-03-16T05:26:12.176Z,100.00
2019-03-16T05:28:12.192Z,100.00
2019-03-16T05:30:12.198Z,100.00
2019-03-16T05:32:12.206Z,100.00
2019-03-16T05:34:12.018Z,100.00
2019-03-16T05:36:11.816Z,100.00
2019-03-16T05:38:12.139Z,100.00
2019-03-16T05:40:12.354Z,100.00
2019-03-16T05:42:12.160Z,100.00
2019-03-16T05:44:12.315Z,100.00
2019-03-16T05:46:12.085Z,100.00
2019-03-16T05:48:12.199Z,100.00
2019-03-16T05:50:12.206Z,100.00
2019-03-16T05:52:12.121Z,100.00
2019-03-16T05:54:12.042Z,100.00
2019-03-16T05:56:12.142Z,100.00
2019-03-16T05:58:12.074Z,100.00
2019-03-16T06:00:12.168Z,100.00
2019-03-16T06:02:12.091Z,100.00
2019-03-16T06:04:12.184Z,100.00
2019-03-16T06:06:12.132Z,100.00
2019-03-16T06:08:12.331Z,100.00
2019-03-16T06:10:11.929Z,100.00
2019-03-16T06:12:12.236Z,100.00
2019-03-16T06:14:12.036Z,100.00
2019-03-16T06:16:12.155Z,100.00
2019-03-16T06:18:13.309Z,100.00
2019-03-16T06:20:12.382Z,100.00
2019-03-16T06:22:12.081Z,100.00
2019-03-16T06:24:12.197Z,100.00
2019-03-16T06:26:12.012Z,100.00
2019-03-16T06:28:12.232Z,100.00
2019-03-16T06:30:12.232Z,100.00
2019-03-16T06:32:12.043Z,100.00
2019-03-16T06:34:12.366Z,100.00
2019-03-16T06:36:12.081Z,100.00
2019-03-16T06:38:12.039Z,100.00
2019-03-16T06:40:12.213Z,100.00
2019-03-16T06:42:12.099Z,100.00
2019-03-16T06:44:12.236Z,100.00
2019-03-16T06:46:12.227Z,100.00
2019-03-16T06:48:12.357Z,100.00
2019-03-16T06:50:12.034Z,100.00
2019-03-16T06:52:11.910Z,100.00
2019-03-16T06:54:12.171Z,100.00
2019-03-16T06:56:12.800Z,100.00
2019-03-16T06:58:12.396Z,100.00
2019-03-16T07:00:12.210Z,100.00
2019-03-16T07:02:12.135Z,100.00
2019-03-16T07:04:12.227Z,100.00
2019-03-16T07:06:12.245Z,100.00
2019-03-16T07:08:12.150Z,100.00
2019-03-16T07:10:11.961Z,100.00
2019-03-16T07:12:12.180Z,100.00
2019-03-16T07:14:12.399Z,100.00
2019-03-16T07:16:12.091Z,100.00
2019-03-16T07:18:12.513Z,100.00
2019-03-16T07:20:12.253Z,100.00
2019-03-16T07:22:12.254Z,100.00
2019-03-16T07:24:11.914Z,100.00
2019-03-16T07:26:15.157Z,100.00
2019-03-16T07:28:12.299Z,100.00
2019-03-16T07:30:12.136Z,100.00
2019-03-16T07:32:12.381Z,100.00
2019-03-16T07:34:12.209Z,100.00
2019-03-16T07:36:12.245Z,100.00
2019-03-16T07:38:12.009Z,100.00
2019-03-16T07:40:12.095Z,100.00
2019-03-16T07:42:12.236Z,100.00
2019-03-16T07:44:12.211Z,100.00
2019-03-16T07:46:12.423Z,100.00
2019-03-16T07:48:12.188Z,100.00
2019-03-16T07:50:12.487Z,100.00
2019-03-16T07:52:12.192Z,100.00
2019-03-16T07:54:12.306Z,100.00
2019-03-16T07:56:12.327Z,100.00
2019-03-16T07:58:12.421Z,99.83
2019-03-16T08:00:12.446Z,99.87
2019-03-16T08:02:12.166Z,100.00
2019-03-16T08:04:12.155Z,99.76
2019-03-16T08:06:12.376Z,99.44
2019-03-16T08:08:12.183Z,99.77
2019-03-16T08:10:12.199Z,99.48
2019-03-16T08:12:11.966Z,99.27
2019-03-16T08:14:12.319Z,99.23
2019-03-16T08:16:12.328Z,99.52
2019-03-16T08:18:12.149Z,99.53
2019-03-16T08:20:12.049Z,99.51
2019-03-16T08:22:12.261Z,99.25
2019-03-16T08:24:11.931Z,99.75
2019-03-16T08:26:12.186Z,99.50
2019-03-16T08:28:12.100Z,99.53
2019-03-16T08:30:12.217Z,99.52
2019-03-16T08:32:12.114Z,99.73
2019-03-16T08:34:12.331Z,99.86
2019-03-16T08:36:12.126Z,99.96
2019-03-16T08:38:12.150Z,99.67
2019-03-16T08:40:12.160Z,99.96
2019-03-16T08:42:12.495Z,99.72
2019-03-16T08:44:12.274Z,99.76
2019-03-16T08:46:12.213Z,99.72
2019-03-16T08:48:22.210Z,99.70
2019-03-16T08:50:12.319Z,99.77
2019-03-16T08:52:12.345Z,100.00
2019-03-16T08:54:12.152Z,99.92
2019-03-16T08:56:12.353Z,99.88
2019-03-16T08:58:12.254Z,99.97
2019-03-16T09:00:12.161Z,100.00
2019-03-16T09:02:12.395Z,100.00
2019-03-16T09:04:12.204Z,100.00
2019-03-16T09:06:12.169Z,100.00
2019-03-16T09:08:12.015Z,99.72
2019-03-16T09:10:11.984Z,99.99
2019-03-16T09:12:12.240Z,99.97
2019-03-16T09:14:12.466Z,99.81
2019-03-16T09:16:12.374Z,99.79
2019-03-16T09:18:12.316Z,99.50
2019-03-16T09:20:12.392Z,99.33
2019-03-16T09:22:12.407Z,99.25
2019-03-16T09:24:12.318Z,99.10
2019-03-16T09:26:12.432Z,99.22
2019-03-16T09:28:18.708Z,99.08
2019-03-16T09:30:12.419Z,99.04
2019-03-16T09:32:12.374Z,98.87
2019-03-16T09:34:12.287Z,98.78
2019-03-16T09:36:12.214Z,98.23
2019-03-16T09:38:12.200Z,98.50
2019-03-16T09:40:12.311Z,98.28
2019-03-16T09:42:12.238Z,98.34
2019-03-16T09:44:12.250Z,98.33
2019-03-16T09:46:12.349Z,98.03
2019-03-16T09:48:12.260Z,97.96
2019-03-16T09:50:12.266Z,97.70
2019-03-16T09:52:12.374Z,97.86
2019-03-16T09:54:12.392Z,98.05
2019-03-16T09:56:12.327Z,97.88
2019-03-16T09:58:12.483Z,97.86
2019-03-16T10:00:12.326Z,97.97
2019-03-16T10:02:12.437Z,97.85
2019-03-16T10:04:12.445Z,98.15
2019-03-16T10:06:12.461Z,97.71
2019-03-16T10:08:12.399Z,97.67
2019-03-16T10:10:12.594Z,97.83
2019-03-16T10:12:12.393Z,97.36
2019-03-16T10:14:12.411Z,97.80
2019-03-16T10:16:12.412Z,97.64
2019-03-16T10:18:12.338Z,97.60
2019-03-16T10:20:12.235Z,97.66
2019-03-16T10:22:12.452Z,97.45
2019-03-16T10:24:12.571Z,97.27
2019-03-16T10:26:12.365Z,97.34
2019-03-16T10:28:12.503Z,97.33
2019-03-16T10:30:12.318Z,96.78
2019-03-16T10:32:12.281Z,96.87
2019-03-16T10:34:12.637Z,96.62
2019-03-16T10:36:12.418Z,96.65
2019-03-16T10:38:12.322Z,96.35
2019-03-16T10:40:12.459Z,96.53
2019-03-16T10:42:12.470Z,96.51
2019-03-16T10:44:12.469Z,96.66
2019-03-16T10:46:12.379Z,96.80
2019-03-16T10:48:12.710Z,96.88
2019-03-16T10:50:12.432Z,96.68
2019-03-16T10:52:12.294Z,96.38
2019-03-16T10:54:12.380Z,96.60
2019-03-16T10:56:12.652Z,96.70
2019-03-16T10:58:12.349Z,96.54
2019-03-16T11:00:12.441Z,96.65
2019-03-16T11:02:12.368Z,96.51
2019-03-16T11:04:12.413Z,96.59
2019-03-16T11:06:12.589Z,96.54
2019-03-16T11:08:12.401Z,96.58
2019-03-16T11:10:12.523Z,96.45
2019-03-16T11:12:12.204Z,96.58
2019-03-16T11:14:12.450Z,96.12
2019-03-16T11:16:12.273Z,94.38
2019-03-16T11:18:12.735Z,95.06
2019-03-16T11:20:12.483Z,95.41
2019-03-16T11:22:12.368Z,95.60
2019-03-16T11:24:12.333Z,95.39
2019-03-16T11:26:12.393Z,95.27
2019-03-16T11:28:12.204Z,95.40
2019-03-16T11:30:12.779Z,95.42
2019-03-16T11:32:12.556Z,95.10
2019-03-16T11:34:12.514Z,95.09
2019-03-16T11:36:12.335Z,94.78
2019-03-16T11:38:12.381Z,94.91
2019-03-16T11:40:12.272Z,95.04
2019-03-16T11:42:12.299Z,94.83
2019-03-16T11:44:12.434Z,94.25
2019-03-16T11:46:12.739Z,93.99
2019-03-16T11:48:12.544Z,93.68
2019-03-16T11:50:12.445Z,93.68
2019-03-16T11:52:12.758Z,93.84
2019-03-16T11:54:12.451Z,93.94
2019-03-16T11:56:17.888Z,94.01
2019-03-16T11:58:12.596Z,93.82
2019-03-16T12:00:12.539Z,92.49
2019-03-16T12:02:12.421Z,92.44
2019-03-16T12:04:13.038Z,91.87
2019-03-16T12:06:12.648Z,91.59
2019-03-16T12:08:12.673Z,91.17
2019-03-16T12:10:12.261Z,91.08
2019-03-16T12:12:12.476Z,90.16
2019-03-16T12:14:12.450Z,90.26
2019-03-16T12:16:12.391Z,89.32
2019-03-16T12:18:12.537Z,89.23
2019-03-16T12:20:12.424Z,89.44
2019-03-16T12:22:12.185Z,88.54
2019-03-16T12:24:12.273Z,88.57
2019-03-16T12:26:12.559Z,88.53
2019-03-16T12:28:12.687Z,88.12
2019-03-16T12:30:12.784Z,87.39
2019-03-16T12:32:12.396Z,87.43
2019-03-16T12:34:12.534Z,86.39
2019-03-16T12:36:12.824Z,85.91
2019-03-16T12:38:12.619Z,85.83
2019-03-16T12:40:12.533Z,85.03
2019-03-16T12:42:13.062Z,85.16
2019-03-16T12:44:12.340Z,85.69
2019-03-16T12:46:12.776Z,85.79
2019-03-16T12:48:12.590Z,85.42
2019-03-16T12:50:12.495Z,85.41
2019-03-16T12:52:12.406Z,85.00
2019-03-16T12:54:12.518Z,84.50
2019-03-16T12:56:12.529Z,84.20
2019-03-16T12:58:12.538Z,83.34
2019-03-16T13:00:12.486Z,82.46
2019-03-16T13:02:12.537Z,82.72
2019-03-16T13:04:12.570Z,83.57
2019-03-16T13:06:12.482Z,83.49
2019-03-16T13:08:12.470Z,82.07
2019-03-16T13:10:12.511Z,82.46
2019-03-16T13:12:12.752Z,81.70
2019-03-16T13:14:12.636Z,81.72
2019-03-16T13:16:12.641Z,82.08
2019-03-16T13:18:12.657Z,82.47
2019-03-16T13:20:12.706Z,81.20
2019-03-16T13:22:12.366Z,81.83
2019-03-16T13:24:12.592Z,82.25
2019-03-16T13:26:12.596Z,81.86
2019-03-16T13:28:12.918Z,81.61
2019-03-16T13:30:12.927Z,80.66
2019-03-16T13:32:12.681Z,81.10
2019-03-16T13:34:12.544Z,81.26
2019-03-16T13:36:12.661Z,81.55
2019-03-16T13:38:12.670Z,81.15
2019-03-16T13:40:12.587Z,80.94
2019-03-16T13:42:12.716Z,81.32
2019-03-16T13:44:13.009Z,81.23
2019-03-16T13:46:12.416Z,80.92
2019-03-16T13:48:12.728Z,81.79
2019-03-16T13:50:12.331Z,81.85
2019-03-16T13:52:12.345Z,82.28
2019-03-16T13:54:12.556Z,82.08
2019-03-16T13:56:12.588Z,81.87
2019-03-16T13:58:12.574Z,82.41
2019-03-16T14:00:12.883Z,83.13
2019-03-16T14:02:12.601Z,83.73
2019-03-16T14:04:12.825Z,84.03
2019-03-16T14:06:12.812Z,84.36
2019-03-16T14:08:12.535Z,84.26
2019-03-16T14:10:12.757Z,84.31
2019-03-16T14:12:12.451Z,83.74
2019-03-16T14:14:12.724Z,84.50
2019-03-16T14:16:12.682Z,84.26
2019-03-16T14:18:12.597Z,83.75
2019-03-16T14:20:12.652Z,83.30
2019-03-16T14:22:12.622Z,83.82
2019-03-16T14:24:12.635Z,84.03
2019-03-16T14:26:12.607Z,83.93
2019-03-16T14:28:12.650Z,83.60
2019-03-16T14:30:25.564Z,83.62
2019-03-16T14:32:12.680Z,82.58
2019-03-16T14:34:12.898Z,81.93
2019-03-16T14:36:12.749Z,82.34
2019-03-16T14:38:12.851Z,81.39
2019-03-16T14:40:13.038Z,82.07
2019-03-16T14:42:12.526Z,82.18
2019-03-16T14:44:12.459Z,81.84
2019-03-16T14:46:12.461Z,81.65
2019-03-16T14:48:15.661Z,82.06
2019-03-16T14:50:12.590Z,82.21
2019-03-16T14:52:15.972Z,82.02
2019-03-16T14:54:12.609Z,81.89
2019-03-16T14:56:12.621Z,81.95
2019-03-16T14:58:12.733Z,81.27
2019-03-16T15:00:12.846Z,81.21
2019-03-16T15:02:12.956Z,81.72
2019-03-16T15:04:12.766Z,82.06
2019-03-16T15:06:12.666Z,81.89
2019-03-16T15:08:12.689Z,81.44
2019-03-16T15:10:12.496Z,81.59
2019-03-16T15:12:15.799Z,81.34
2019-03-16T15:14:21.478Z,79.94
2019-03-16T15:16:12.625Z,79.77
2019-03-16T15:18:15.571Z,79.46
2019-03-16T15:20:12.564Z,79.27
2019-03-16T15:22:13.074Z,79.80
2019-03-16T15:24:15.473Z,78.64
2019-03-16T15:26:12.893Z,77.66
2019-03-16T15:28:15.207Z,77.56
2019-03-16T15:30:12.651Z,77.44
2019-03-16T15:32:12.896Z,77.77
2019-03-16T15:34:12.631Z,77.23
2019-03-16T15:36:12.751Z,77.71
2019-03-16T15:38:12.445Z,77.80
2019-03-16T15:40:12.735Z,77.12
2019-03-16T15:42:13.185Z,76.99
2019-03-16T15:44:15.554Z,77.51
2019-03-16T15:46:12.523Z,77.67
2019-03-16T15:48:12.934Z,77.46
2019-03-16T15:50:12.812Z,77.84
2019-03-16T15:52:12.430Z,77.42
2019-03-16T15:54:12.838Z,77.09
2019-03-16T15:56:12.758Z,77.16
2019-03-16T15:58:12.780Z,76.96
2019-03-16T16:00:12.644Z,77.10
2019-03-16T16:02:12.787Z,76.74
2019-03-16T16:04:12.807Z,76.72
2019-03-16T16:06:12.817Z,75.50
2019-03-16T16:08:12.736Z,76.51
2019-03-16T16:10:12.618Z,75.92
2019-03-16T16:12:12.742Z,76.65
2019-03-16T16:14:12.843Z,76.09
2019-03-16T16:16:12.981Z,75.91
2019-03-16T16:18:13.191Z,76.26
2019-03-16T16:20:12.804Z,75.97
2019-03-16T16:22:12.713Z,76.22
2019-03-16T16:24:13.124Z,75.65
2019-03-16T16:26:12.832Z,76.01
2019-03-16T16:28:12.738Z,76.39
2019-03-16T16:30:12.740Z,76.13
2019-03-16T16:32:12.842Z,76.50
2019-03-16T16:34:12.982Z,75.82
2019-03-16T16:36:12.951Z,75.80
2019-03-16T16:38:12.795Z,75.81
2019-03-16T16:40:12.805Z,76.17
2019-03-16T16:42:12.829Z,75.63
2019-03-16T16:44:12.971Z,75.60
2019-03-16T16:46:12.849Z,76.29
2019-03-16T16:48:12.853Z,76.38
2019-03-16T16:50:12.668Z,76.60
2019-03-16T16:52:12.779Z,76.57
2019-03-16T16:54:13.196Z,76.75
2019-03-16T16:56:13.105Z,76.95
2019-03-16T16:58:15.324Z,77.08
2019-03-16T17:00:12.929Z,77.28
2019-03-16T17:02:12.839Z,77.34
2019-03-16T17:04:13.158Z,77.36
2019-03-16T17:06:12.977Z,77.24
2019-03-16T17:08:12.770Z,76.84
2019-03-16T17:10:12.862Z,76.96
2019-03-16T17:12:13.923Z,76.63
2019-03-16T17:14:12.838Z,76.40
2019-03-16T17:16:12.772Z,76.73
2019-03-16T17:18:12.935Z,76.60
2019-03-16T17:20:12.772Z,76.39
2019-03-16T17:22:12.962Z,76.19
2019-03-16T17:24:12.970Z,75.96
2019-03-16T17:26:12.568Z,76.55
2019-03-16T17:28:13.024Z,76.56
2019-03-16T17:30:13.242Z,76.80
2019-03-16T17:32:12.702Z,76.61
2019-03-16T17:34:12.633Z,76.41
2019-03-16T17:36:12.830Z,76.08
2019-03-16T17:38:12.844Z,75.85
2019-03-16T17:40:12.968Z,75.54
2019-03-16T17:42:12.662Z,75.82
2019-03-16T17:44:13.180Z,75.72
2019-03-16T17:46:12.547Z,75.87
2019-03-16T17:48:12.766Z,75.21
2019-03-16T17:50:13.223Z,75.21
2019-03-16T17:52:13.139Z,75.04
2019-03-16T17:54:13.356Z,75.81
2019-03-16T17:56:13.050Z,75.28
2019-03-16T17:58:12.956Z,75.75
2019-03-16T18:00:13.280Z,75.54
2019-03-16T18:02:13.109Z,76.35
2019-03-16T18:04:13.199Z,76.25
2019-03-16T18:06:13.205Z,76.24
2019-03-16T18:08:12.939Z,76.04
2019-03-16T18:10:12.593Z,76.40
2019-03-16T18:12:13.494Z,76.40
2019-03-16T18:14:12.947Z,76.74
2019-03-16T18:16:13.157Z,76.76
2019-03-16T18:18:12.967Z,76.86
2019-03-16T18:20:13.069Z,76.80
2019-03-16T18:22:13.207Z,77.02
2019-03-16T18:24:13.620Z,76.73
2019-03-16T18:26:13.145Z,77.12
2019-03-16T18:28:14.261Z,76.98
2019-03-16T18:30:13.344Z,76.83
2019-03-16T18:32:13.261Z,76.50
2019-03-16T18:34:13.470Z,76.65
2019-03-16T18:36:13.484Z,76.54
2019-03-16T18:38:13.068Z,76.64
2019-03-16T18:40:13.185Z,76.50
2019-03-16T18:42:13.217Z,76.43
2019-03-16T18:44:13.147Z,76.28
2019-03-16T18:46:13.235Z,76.61
2019-03-16T18:48:13.245Z,76.19
2019-03-16T18:50:13.309Z,76.27
2019-03-16T18:52:13.277Z,76.56
2019-03-16T18:54:13.085Z,76.24
2019-03-16T18:56:13.298Z,76.17
2019-03-16T18:58:13.412Z,76.32
2019-03-16T19:00:13.494Z,76.60
2019-03-16T19:02:20.728Z,76.46
2019-03-16T19:04:13.216Z,76.57
2019-03-16T19:06:13.117Z,76.37
2019-03-16T19:08:13.368Z,76.59
2019-03-16T19:10:13.161Z,76.84
2019-03-16T19:12:13.302Z,76.88
2019-03-16T19:14:13.298Z,77.00
2019-03-16T19:16:13.055Z,77.23
2019-03-16T19:18:13.297Z,77.15
2019-03-16T19:20:13.247Z,76.88
2019-03-16T19:22:13.405Z,76.91
2019-03-16T19:24:13.459Z,76.84
2019-03-16T19:26:13.292Z,77.25
2019-03-16T19:28:13.382Z,77.49
2019-03-16T19:30:13.295Z,77.31
2019-03-16T19:32:13.164Z,77.63
2019-03-16T19:34:13.419Z,77.66
2019-03-16T19:36:13.430Z,78.33
2019-03-16T19:38:13.486Z,78.18
2019-03-16T19:40:13.962Z,78.31
2019-03-16T19:42:13.386Z,78.74
2019-03-16T19:44:13.165Z,78.84
2019-03-16T19:46:13.344Z,79.39
2019-03-16T19:48:13.358Z,79.26
2019-03-16T19:50:13.523Z,79.17
2019-03-16T19:52:13.428Z,79.16
2019-03-16T19:54:13.436Z,78.87
2019-03-16T19:56:13.574Z,79.25
2019-03-16T19:58:13.232Z,79.37
2019-03-16T20:00:13.121Z,79.40
2019-03-16T20:02:13.478Z,79.30
2019-03-16T20:04:13.297Z,79.37
2019-03-16T20:06:24.829Z,79.49
2019-03-16T20:08:13.449Z,79.48
2019-03-16T20:10:13.425Z,79.33
2019-03-16T20:12:13.270Z,79.72
2019-03-16T20:14:13.241Z,79.89
2019-03-16T20:16:13.349Z,79.49
2019-03-16T20:18:13.167Z,79.89
2019-03-16T20:20:13.273Z,80.25
2019-03-16T20:22:13.282Z,80.02
2019-03-16T20:24:13.499Z,79.95
2019-03-16T20:26:13.406Z,80.31
2019-03-16T20:28:13.526Z,80.73
2019-03-16T20:30:13.433Z,80.54
2019-03-16T20:32:13.245Z,80.33
2019-03-16T20:34:13.092Z,80.44
2019-03-16T20:36:13.466Z,81.10
2019-03-16T20:38:13.119Z,81.01
2019-03-16T20:40:13.099Z,81.29
2019-03-16T20:42:13.093Z,81.42
2019-03-16T20:44:13.315Z,81.70
2019-03-16T20:46:12.916Z,81.92
2019-03-16T20:48:13.032Z,82.12
2019-03-16T20:50:13.106Z,82.46
2019-03-16T20:52:13.152Z,82.49
2019-03-16T20:54:13.170Z,82.74
2019-03-16T20:56:13.326Z,83.01
2019-03-16T20:58:12.778Z,83.42
2019-03-16T21:00:12.998Z,83.30
2019-03-16T21:02:13.045Z,83.38
2019-03-16T21:04:13.125Z,83.30
2019-03-16T21:06:12.823Z,83.17
2019-03-16T21:08:13.143Z,83.08
2019-03-16T21:10:13.156Z,83.44
2019-03-16T21:12:13.164Z,83.10
2019-03-16T21:14:13.181Z,83.65
2019-03-16T21:16:13.096Z,83.14
2019-03-16T21:18:12.936Z,83.47
2019-03-16T21:20:13.007Z,83.50
2019-03-16T21:22:13.431Z,83.57
2019-03-16T21:24:13.318Z,83.91
2019-03-16T21:26:13.045Z,83.99
2019-03-16T21:28:15.677Z,84.46
2019-03-16T21:30:13.152Z,84.76
2019-03-16T21:32:12.984Z,84.82
2019-03-16T21:34:13.402Z,85.25
2019-03-16T21:36:12.981Z,85.03
2019-03-16T21:38:13.219Z,85.19
2019-03-16T21:40:13.229Z,85.56
2019-03-16T21:42:12.951Z,85.57
2019-03-16T21:44:13.253Z,86.15
2019-03-16T21:46:13.161Z,86.04
2019-03-16T21:48:13.273Z,85.86
2019-03-16T21:50:13.194Z,86.25
2019-03-16T21:52:13.140Z,86.38
2019-03-16T21:54:13.076Z,86.33
2019-03-16T21:56:13.419Z,86.13
2019-03-16T21:58:13.126Z,86.38
2019-03-16T22:00:13.055Z,86.51
2019-03-16T22:02:13.360Z,86.65
2019-03-16T22:04:12.925Z,87.13
2019-03-16T22:06:13.168Z,86.62
2019-03-16T22:08:13.393Z,87.43
2019-03-16T22:10:13.098Z,87.44
2019-03-16T22:12:13.238Z,87.82
2019-03-16T22:14:13.021Z,88.18
2019-03-16T22:16:13.236Z,88.23
2019-03-16T22:18:13.243Z,88.39
2019-03-16T22:20:13.017Z,87.98
2019-03-16T22:22:13.263Z,88.00
2019-03-16T22:24:13.176Z,88.12
2019-03-16T22:26:13.089Z,88.10
2019-03-16T22:28:13.297Z,88.41
2019-03-16T22:30:13.006Z,88.97
2019-03-16T22:32:13.123Z,88.89
2019-03-16T22:34:13.009Z,89.10
2019-03-16T22:36:13.148Z,89.41
2019-03-16T22:38:12.949Z,89.52
2019-03-16T22:40:13.171Z,89.25
2019-03-16T22:42:13.381Z,89.51
2019-03-16T22:44:13.241Z,89.89
2019-03-16T22:46:13.440Z,89.81
2019-03-16T22:48:13.112Z,89.69
2019-03-16T22:50:13.243Z,89.88
2019-03-16T22:52:13.046Z,89.65
2019-03-16T22:54:13.073Z,89.97
2019-03-16T22:56:13.265Z,89.86
2019-03-16T22:58:13.274Z,90.37
2019-03-16T23:00:13.076Z,90.34
2019-03-16T23:02:13.082Z,90.26
2019-03-16T23:04:13.303Z,90.73
2019-03-16T23:06:13.109Z,90.74
2019-03-16T23:08:13.123Z,90.98
2019-03-16T23:10:13.154Z,90.98
2019-03-16T23:12:12.955Z,90.98
2019-03-16T23:14:13.099Z,90.83
2019-03-16T23:16:13.176Z,91.12
2019-03-16T23:18:13.286Z,91.46
2019-03-16T23:20:13.201Z,91.51
2019-03-16T23:22:13.063Z,91.34
2019-03-16T23:24:13.321Z,91.49
2019-03-16T23:26:13.165Z,91.86
2019-03-16T23:28:13.246Z,91.58
2019-03-16T23:30:13.268Z,91.96
2019-03-16T23:32:13.268Z,91.84
2019-03-16T23:34:19.103Z,92.19
2019-03-16T23:36:13.170Z,92.05
2019-03-16T23:38:13.220Z,92.26
2019-03-16T23:40:13.210Z,92.36
2019-03-16T23:42:13.322Z,92.23
2019-03-16T23:44:13.334Z,92.20
2019-03-16T23:46:13.346Z,91.97
2019-03-16T23:48:13.135Z,92.13
2019-03-16T23:50:13.267Z,92.18
2019-03-16T23:52:13.279Z,91.85
2019-03-16T23:54:13.393Z,91.98
2019-03-16T23:56:13.175Z,91.87
2019-03-16T23:58:13.152Z,91.68
